sensor_id;sensor_type;location;lat;lon;timestamp;temperature;humidity
21580;DHT22;10951;59.656;9.666;2022-12-07T00:01:19;-2.40;99.90
21580;DHT22;10951;59.656;9.666;2022-12-07T00:03:47;-2.40;99.90
21580;DHT22;10951;59.656;9.666;2022-12-07T00:06:16;-2.40;99.90
21580;DHT22;10951;59.656;9.666;2022-12-07T00:08:44;-2.30;99.90
21580;DHT22;10951;59.656;9.666;2022-12-07T00:11:14;-2.30;99.90
21580;DHT22;10951;59.656;9.666;2022-12-07T00:13:41;-2.30;99.90
21580;DHT22;10951;59.656;9.666;2022-12-07T00:16:12;-2.30;99.90
21580;DHT22;10951;59.656;9.666;2022-12-07T00:18:40;-2.30;99.90
21580;DHT22;10951;59.656;9.666;2022-12-07T00:21:14;-2.30;99.90
21580;DHT22;10951;59.656;9.666;2022-12-07T00:23:43;-2.30;99.90
21580;DHT22;10951;59.656;9.666;2022-12-07T00:28:57;-2.30;99.90
21580;DHT22;10951;59.656;9.666;2022-12-07T00:31:30;-2.40;99.90
21580;DHT22;10951;59.656;9.666;2022-12-07T00:33:57;-2.50;99.90
21580;DHT22;10951;59.656;9.666;2022-12-07T00:36:25;-2.50;99.90
21580;DHT22;10951;59.656;9.666;2022-12-07T00:38:54;-2.50;99.90
21580;DHT22;10951;59.656;9.666;2022-12-07T00:41:23;-2.60;99.90
21580;DHT22;10951;59.656;9.666;2022-12-07T00:43:51;-2.60;99.90
21580;DHT22;10951;59.656;9.666;2022-12-07T00:46:19;-2.60;99.90
21580;DHT22;10951;59.656;9.666;2022-12-07T00:48:47;-2.70;99.90
21580;DHT22;10951;59.656;9.666;2022-12-07T00:51:16;-2.70;99.90
21580;DHT22;10951;59.656;9.666;2022-12-07T00:53:43;-2.80;99.90
21580;DHT22;10951;59.656;9.666;2022-12-07T00:56:22;-2.90;99.90
21580;DHT22;10951;59.656;9.666;2022-12-07T00:59:00;-2.80;99.90
21580;DHT22;10951;59.656;9.666;2022-12-07T01:01:31;-2.80;99.90
21580;DHT22;10951;59.656;9.666;2022-12-07T01:03:58;-2.90;99.90
21580;DHT22;10951;59.656;9.666;2022-12-07T01:06:28;-2.90;99.90
21580;DHT22;10951;59.656;9.666;2022-12-07T01:08:55;-3.00;99.90
21580;DHT22;10951;59.656;9.666;2022-12-07T01:11:25;-3.00;99.90
21580;DHT22;10951;59.656;9.666;2022-12-07T01:13:55;-3.00;99.90
21580;DHT22;10951;59.656;9.666;2022-12-07T01:16:23;-3.00;99.90
21580;DHT22;10951;59.656;9.666;2022-12-07T01:18:52;-3.10;99.90
21580;DHT22;10951;59.656;9.666;2022-12-07T01:21:27;-3.20;99.90
21580;DHT22;10951;59.656;9.666;2022-12-07T01:23:57;-3.10;99.90
21580;DHT22;10951;59.656;9.666;2022-12-07T01:26:25;-3.20;99.90
21580;DHT22;10951;59.656;9.666;2022-12-07T01:28:52;-3.20;99.90
21580;DHT22;10951;59.656;9.666;2022-12-07T01:31:23;-3.30;99.90
21580;DHT22;10951;59.656;9.666;2022-12-07T01:33:54;-3.30;99.90
21580;DHT22;10951;59.656;9.666;2022-12-07T01:36:29;-3.30;99.90
21580;DHT22;10951;59.656;9.666;2022-12-07T01:38:59;-3.40;99.90
21580;DHT22;10951;59.656;9.666;2022-12-07T01:41:32;-3.50;99.90
21580;DHT22;10951;59.656;9.666;2022-12-07T01:44:18;-3.60;99.90
21580;DHT22;10951;59.656;9.666;2022-12-07T01:46:52;-3.70;99.90
21580;DHT22;10951;59.656;9.666;2022-12-07T01:52:17;-3.60;99.90
21580;DHT22;10951;59.656;9.666;2022-12-07T01:54:46;-3.60;99.90
21580;DHT22;10951;59.656;9.666;2022-12-07T01:57:15;-3.50;99.90
21580;DHT22;10951;59.656;9.666;2022-12-07T01:59:45;-3.50;99.90
21580;DHT22;10951;59.656;9.666;2022-12-07T02:02:20;-3.60;99.90
21580;DHT22;10951;59.656;9.666;2022-12-07T02:04:49;-3.60;99.90
21580;DHT22;10951;59.656;9.666;2022-12-07T02:07:17;-3.50;99.90
21580;DHT22;10951;59.656;9.666;2022-12-07T02:09:44;-3.60;99.90
21580;DHT22;10951;59.656;9.666;2022-12-07T02:12:12;-3.60;99.90
21580;DHT22;10951;59.656;9.666;2022-12-07T02:14:39;-3.70;99.90
21580;DHT22;10951;59.656;9.666;2022-12-07T02:17:14;-3.70;99.90
21580;DHT22;10951;59.656;9.666;2022-12-07T02:20:17;-3.70;99.90
21580;DHT22;10951;59.656;9.666;2022-12-07T02:25:41;-3.90;99.90
21580;DHT22;10951;59.656;9.666;2022-12-07T02:28:34;-3.90;99.90
21580;DHT22;10951;59.656;9.666;2022-12-07T02:31:08;-3.90;99.90
21580;DHT22;10951;59.656;9.666;2022-12-07T02:33:54;-4.00;99.90
21580;DHT22;10951;59.656;9.666;2022-12-07T02:36:29;-4.00;99.90
21580;DHT22;10951;59.656;9.666;2022-12-07T02:39:02;-4.10;99.90
21580;DHT22;10951;59.656;9.666;2022-12-07T02:44:03;-4.10;99.90
21580;DHT22;10951;59.656;9.666;2022-12-07T02:46:37;-4.20;99.90
21580;DHT22;10951;59.656;9.666;2022-12-07T02:49:05;-4.20;99.90
21580;DHT22;10951;59.656;9.666;2022-12-07T02:51:33;-4.20;99.90
21580;DHT22;10951;59.656;9.666;2022-12-07T02:54:00;-4.30;99.90
21580;DHT22;10951;59.656;9.666;2022-12-07T03:04:56;-4.50;99.90
21580;DHT22;10951;59.656;9.666;2022-12-07T03:07:36;-4.50;99.90
21580;DHT22;10951;59.656;9.666;2022-12-07T03:13:07;-4.40;99.90
21580;DHT22;10951;59.656;9.666;2022-12-07T03:15:50;-4.60;99.90
21580;DHT22;10951;59.656;9.666;2022-12-07T03:18:23;-4.60;99.90
21580;DHT22;10951;59.656;9.666;2022-12-07T03:20:54;-4.70;99.90
21580;DHT22;10951;59.656;9.666;2022-12-07T03:23:25;-4.70;99.90
21580;DHT22;10951;59.656;9.666;2022-12-07T03:25:56;-4.70;99.90
21580;DHT22;10951;59.656;9.666;2022-12-07T03:28:33;-4.70;99.90
21580;DHT22;10951;59.656;9.666;2022-12-07T03:31:13;-4.60;99.90
21580;DHT22;10951;59.656;9.666;2022-12-07T03:33:49;-4.60;99.90
21580;DHT22;10951;59.656;9.666;2022-12-07T03:36:26;-4.70;99.90
21580;DHT22;10951;59.656;9.666;2022-12-07T03:41:41;-4.70;99.90
21580;DHT22;10951;59.656;9.666;2022-12-07T03:44:12;-4.70;99.90
21580;DHT22;10951;59.656;9.666;2022-12-07T03:49:19;-4.70;99.90
21580;DHT22;10951;59.656;9.666;2022-12-07T03:57:16;-4.70;99.90
21580;DHT22;10951;59.656;9.666;2022-12-07T03:59:44;-4.80;99.90
21580;DHT22;10951;59.656;9.666;2022-12-07T04:02:13;-4.80;99.90
21580;DHT22;10951;59.656;9.666;2022-12-07T04:04:41;-4.90;99.90
21580;DHT22;10951;59.656;9.666;2022-12-07T04:07:09;-4.90;99.90
21580;DHT22;10951;59.656;9.666;2022-12-07T04:09:36;-4.80;99.90
21580;DHT22;10951;59.656;9.666;2022-12-07T04:12:03;-4.80;99.90
21580;DHT22;10951;59.656;9.666;2022-12-07T04:14:30;-4.90;99.90
21580;DHT22;10951;59.656;9.666;2022-12-07T04:16:58;-4.90;99.90
21580;DHT22;10951;59.656;9.666;2022-12-07T04:19:28;-4.90;99.90
21580;DHT22;10951;59.656;9.666;2022-12-07T04:21:57;-5.00;99.90
21580;DHT22;10951;59.656;9.666;2022-12-07T04:24:24;-5.00;99.90
21580;DHT22;10951;59.656;9.666;2022-12-07T04:26:51;-5.10;99.90
21580;DHT22;10951;59.656;9.666;2022-12-07T04:29:19;-5.10;99.90
21580;DHT22;10951;59.656;9.666;2022-12-07T04:31:46;-5.20;99.90
21580;DHT22;10951;59.656;9.666;2022-12-07T04:34:14;-5.20;99.90
21580;DHT22;10951;59.656;9.666;2022-12-07T04:36:42;-5.30;99.90
21580;DHT22;10951;59.656;9.666;2022-12-07T04:39:24;-5.30;99.90
21580;DHT22;10951;59.656;9.666;2022-12-07T04:41:52;-5.30;99.90
21580;DHT22;10951;59.656;9.666;2022-12-07T04:44:20;-5.30;99.90
21580;DHT22;10951;59.656;9.666;2022-12-07T04:46:47;-5.30;99.90
21580;DHT22;10951;59.656;9.666;2022-12-07T04:49:15;-5.40;99.90
21580;DHT22;10951;59.656;9.666;2022-12-07T04:51:42;-5.40;99.90
21580;DHT22;10951;59.656;9.666;2022-12-07T04:54:10;-5.50;99.90
21580;DHT22;10951;59.656;9.666;2022-12-07T04:56:37;-5.50;99.90
21580;DHT22;10951;59.656;9.666;2022-12-07T04:59:04;-5.50;99.90
21580;DHT22;10951;59.656;9.666;2022-12-07T05:01:32;-5.60;99.90
21580;DHT22;10951;59.656;9.666;2022-12-07T05:03:59;-5.60;99.90
21580;DHT22;10951;59.656;9.666;2022-12-07T05:06:26;-5.60;99.90
21580;DHT22;10951;59.656;9.666;2022-12-07T05:08:53;-5.60;99.90
21580;DHT22;10951;59.656;9.666;2022-12-07T05:11:20;-5.60;99.90
21580;DHT22;10951;59.656;9.666;2022-12-07T05:14:15;-5.60;99.90
21580;DHT22;10951;59.656;9.666;2022-12-07T05:16:45;-5.60;99.90
21580;DHT22;10951;59.656;9.666;2022-12-07T05:19:12;-5.70;99.90
21580;DHT22;10951;59.656;9.666;2022-12-07T05:21:40;-5.60;99.90
21580;DHT22;10951;59.656;9.666;2022-12-07T05:24:09;-5.70;99.90
21580;DHT22;10951;59.656;9.666;2022-12-07T05:26:36;-5.70;99.90
21580;DHT22;10951;59.656;9.666;2022-12-07T05:29:03;-5.70;99.90
21580;DHT22;10951;59.656;9.666;2022-12-07T05:31:31;-5.70;99.90
21580;DHT22;10951;59.656;9.666;2022-12-07T05:33:58;-5.70;99.90
21580;DHT22;10951;59.656;9.666;2022-12-07T05:36:25;-5.70;99.90
21580;DHT22;10951;59.656;9.666;2022-12-07T05:38:52;-5.80;99.90
21580;DHT22;10951;59.656;9.666;2022-12-07T05:41:19;-5.80;99.90
21580;DHT22;10951;59.656;9.666;2022-12-07T05:44:05;-5.90;99.90
21580;DHT22;10951;59.656;9.666;2022-12-07T05:46:32;-6.00;99.90
21580;DHT22;10951;59.656;9.666;2022-12-07T05:49:00;-6.10;99.90
21580;DHT22;10951;59.656;9.666;2022-12-07T05:51:27;-6.20;99.90
21580;DHT22;10951;59.656;9.666;2022-12-07T05:53:54;-6.30;99.90
21580;DHT22;10951;59.656;9.666;2022-12-07T05:56:22;-6.30;99.90
21580;DHT22;10951;59.656;9.666;2022-12-07T05:58:49;-6.30;99.90
21580;DHT22;10951;59.656;9.666;2022-12-07T06:01:35;-6.30;99.90
21580;DHT22;10951;59.656;9.666;2022-12-07T06:04:02;-6.30;99.90
21580;DHT22;10951;59.656;9.666;2022-12-07T06:06:29;-6.40;99.90
21580;DHT22;10951;59.656;9.666;2022-12-07T06:08:56;-6.40;99.90
21580;DHT22;10951;59.656;9.666;2022-12-07T06:11:23;-6.40;99.90
21580;DHT22;10951;59.656;9.666;2022-12-07T06:14:08;-6.50;99.90
21580;DHT22;10951;59.656;9.666;2022-12-07T06:16:35;-6.50;99.90
21580;DHT22;10951;59.656;9.666;2022-12-07T06:19:02;-6.50;99.90
21580;DHT22;10951;59.656;9.666;2022-12-07T06:21:29;-6.50;99.90
21580;DHT22;10951;59.656;9.666;2022-12-07T06:23:56;-6.50;99.90
21580;DHT22;10951;59.656;9.666;2022-12-07T06:26:23;-6.50;99.90
21580;DHT22;10951;59.656;9.666;2022-12-07T06:28:50;-6.50;99.90
21580;DHT22;10951;59.656;9.666;2022-12-07T06:31:16;-6.50;99.90
21580;DHT22;10951;59.656;9.666;2022-12-07T06:33:43;-6.60;99.90
21580;DHT22;10951;59.656;9.666;2022-12-07T06:36:11;-6.60;99.90
21580;DHT22;10951;59.656;9.666;2022-12-07T06:38:38;-6.70;99.90
21580;DHT22;10951;59.656;9.666;2022-12-07T06:41:05;-6.80;99.90
21580;DHT22;10951;59.656;9.666;2022-12-07T06:43:33;-6.80;99.90
21580;DHT22;10951;59.656;9.666;2022-12-07T06:46:00;-6.80;99.90
21580;DHT22;10951;59.656;9.666;2022-12-07T06:48:28;-6.80;99.90
21580;DHT22;10951;59.656;9.666;2022-12-07T06:50:54;-6.90;99.90
21580;DHT22;10951;59.656;9.666;2022-12-07T06:53:22;-6.90;99.90
21580;DHT22;10951;59.656;9.666;2022-12-07T06:55:49;-7.00;99.90
21580;DHT22;10951;59.656;9.666;2022-12-07T06:58:18;-7.00;99.90
21580;DHT22;10951;59.656;9.666;2022-12-07T07:00:45;-7.00;99.90
21580;DHT22;10951;59.656;9.666;2022-12-07T07:03:12;-7.10;99.90
21580;DHT22;10951;59.656;9.666;2022-12-07T07:05:39;-7.20;99.90
21580;DHT22;10951;59.656;9.666;2022-12-07T07:08:06;-7.20;99.90
21580;DHT22;10951;59.656;9.666;2022-12-07T07:10:49;-7.30;99.90
21580;DHT22;10951;59.656;9.666;2022-12-07T07:13:17;-7.30;99.90
21580;DHT22;10951;59.656;9.666;2022-12-07T07:15:44;-7.30;99.90
21580;DHT22;10951;59.656;9.666;2022-12-07T07:18:11;-7.30;99.90
21580;DHT22;10951;59.656;9.666;2022-12-07T07:20:38;-7.30;99.90
21580;DHT22;10951;59.656;9.666;2022-12-07T07:23:06;-7.30;99.90
21580;DHT22;10951;59.656;9.666;2022-12-07T07:25:33;-7.30;99.90
21580;DHT22;10951;59.656;9.666;2022-12-07T07:28:00;-7.40;99.90
21580;DHT22;10951;59.656;9.666;2022-12-07T07:30:27;-7.40;99.90
21580;DHT22;10951;59.656;9.666;2022-12-07T07:32:58;-7.50;99.90
21580;DHT22;10951;59.656;9.666;2022-12-07T07:35:27;-7.50;99.90
21580;DHT22;10951;59.656;9.666;2022-12-07T07:37:54;-7.50;99.90
21580;DHT22;10951;59.656;9.666;2022-12-07T07:40:21;-7.50;99.90
21580;DHT22;10951;59.656;9.666;2022-12-07T07:42:49;-7.50;99.90
21580;DHT22;10951;59.656;9.666;2022-12-07T07:45:17;-7.50;99.90
21580;DHT22;10951;59.656;9.666;2022-12-07T07:47:44;-7.60;99.90
21580;DHT22;10951;59.656;9.666;2022-12-07T07:50:11;-7.60;99.90
21580;DHT22;10951;59.656;9.666;2022-12-07T07:52:40;-7.60;99.90
21580;DHT22;10951;59.656;9.666;2022-12-07T07:55:08;-7.60;99.90
21580;DHT22;10951;59.656;9.666;2022-12-07T07:57:36;-7.60;99.90
21580;DHT22;10951;59.656;9.666;2022-12-07T08:00:05;-7.60;99.90
21580;DHT22;10951;59.656;9.666;2022-12-07T08:02:38;-7.60;99.90
21580;DHT22;10951;59.656;9.666;2022-12-07T08:05:05;-7.60;99.90
21580;DHT22;10951;59.656;9.666;2022-12-07T08:07:33;-7.60;99.90
21580;DHT22;10951;59.656;9.666;2022-12-07T08:10:00;-7.70;99.90
21580;DHT22;10951;59.656;9.666;2022-12-07T08:12:27;-7.70;99.90
21580;DHT22;10951;59.656;9.666;2022-12-07T08:14:54;-7.80;99.90
21580;DHT22;10951;59.656;9.666;2022-12-07T08:17:21;-7.80;99.90
21580;DHT22;10951;59.656;9.666;2022-12-07T08:19:48;-7.80;99.90
21580;DHT22;10951;59.656;9.666;2022-12-07T08:22:15;-7.80;99.90
21580;DHT22;10951;59.656;9.666;2022-12-07T08:24:42;-7.70;99.90
21580;DHT22;10951;59.656;9.666;2022-12-07T08:27:08;-7.70;99.90
21580;DHT22;10951;59.656;9.666;2022-12-07T08:29:36;-7.80;99.90
21580;DHT22;10951;59.656;9.666;2022-12-07T08:32:02;-7.70;99.90
21580;DHT22;10951;59.656;9.666;2022-12-07T08:34:35;-7.70;99.90
21580;DHT22;10951;59.656;9.666;2022-12-07T08:37:03;-7.80;99.90
21580;DHT22;10951;59.656;9.666;2022-12-07T08:39:30;-7.80;99.90
21580;DHT22;10951;59.656;9.666;2022-12-07T08:41:58;-7.80;99.90
21580;DHT22;10951;59.656;9.666;2022-12-07T08:44:25;-7.90;99.90
21580;DHT22;10951;59.656;9.666;2022-12-07T08:46:57;-7.90;99.90
21580;DHT22;10951;59.656;9.666;2022-12-07T08:49:46;-8.00;99.90
21580;DHT22;10951;59.656;9.666;2022-12-07T08:52:14;-8.00;99.90
21580;DHT22;10951;59.656;9.666;2022-12-07T08:54:41;-8.00;99.90
21580;DHT22;10951;59.656;9.666;2022-12-07T08:57:10;-8.00;99.90
21580;DHT22;10951;59.656;9.666;2022-12-07T08:59:37;-8.00;99.90
21580;DHT22;10951;59.656;9.666;2022-12-07T09:02:05;-8.00;99.90
21580;DHT22;10951;59.656;9.666;2022-12-07T09:04:32;-8.00;99.90
21580;DHT22;10951;59.656;9.666;2022-12-07T09:06:59;-8.00;99.90
21580;DHT22;10951;59.656;9.666;2022-12-07T09:09:26;-8.00;99.90
21580;DHT22;10951;59.656;9.666;2022-12-07T09:11:53;-8.00;99.90
21580;DHT22;10951;59.656;9.666;2022-12-07T09:14:20;-7.90;99.90
21580;DHT22;10951;59.656;9.666;2022-12-07T09:16:47;-7.80;99.90
21580;DHT22;10951;59.656;9.666;2022-12-07T09:19:14;-7.80;99.90
21580;DHT22;10951;59.656;9.666;2022-12-07T09:21:41;-7.80;99.80
21580;DHT22;10951;59.656;9.666;2022-12-07T09:24:08;-7.70;99.80
21580;DHT22;10951;59.656;9.666;2022-12-07T09:26:35;-7.80;99.50
21580;DHT22;10951;59.656;9.666;2022-12-07T09:29:03;-7.70;99.30
21580;DHT22;10951;59.656;9.666;2022-12-07T09:31:30;-7.70;99.10
21580;DHT22;10951;59.656;9.666;2022-12-07T09:33:58;-7.70;98.90
21580;DHT22;10951;59.656;9.666;2022-12-07T09:36:26;-7.80;99.00
21580;DHT22;10951;59.656;9.666;2022-12-07T09:38:54;-7.80;99.10
21580;DHT22;10951;59.656;9.666;2022-12-07T09:41:22;-7.90;99.20
21580;DHT22;10951;59.656;9.666;2022-12-07T09:43:50;-8.00;99.60
21580;DHT22;10951;59.656;9.666;2022-12-07T09:46:18;-8.00;99.80
21580;DHT22;10951;59.656;9.666;2022-12-07T09:48:46;-8.00;99.90
21580;DHT22;10951;59.656;9.666;2022-12-07T09:51:20;-8.00;99.90
21580;DHT22;10951;59.656;9.666;2022-12-07T09:53:52;-7.90;99.90
21580;DHT22;10951;59.656;9.666;2022-12-07T09:56:21;-7.90;99.90
21580;DHT22;10951;59.656;9.666;2022-12-07T09:58:48;-7.90;99.90
21580;DHT22;10951;59.656;9.666;2022-12-07T10:01:20;-7.90;99.90
21580;DHT22;10951;59.656;9.666;2022-12-07T10:03:55;-7.80;99.90
21580;DHT22;10951;59.656;9.666;2022-12-07T10:06:25;-7.70;99.90
21580;DHT22;10951;59.656;9.666;2022-12-07T10:08:52;-7.60;99.90
21580;DHT22;10951;59.656;9.666;2022-12-07T10:11:19;-7.60;99.70
21580;DHT22;10951;59.656;9.666;2022-12-07T10:13:48;-7.50;99.60
21580;DHT22;10951;59.656;9.666;2022-12-07T10:18:55;-7.40;99.20
21580;DHT22;10951;59.656;9.666;2022-12-07T10:21:26;-7.30;99.10
21580;DHT22;10951;59.656;9.666;2022-12-07T10:24:05;-7.30;99.00
21580;DHT22;10951;59.656;9.666;2022-12-07T10:26:33;-7.20;98.80
21580;DHT22;10951;59.656;9.666;2022-12-07T10:29:14;-7.20;98.70
21580;DHT22;10951;59.656;9.666;2022-12-07T10:31:42;-7.20;98.60
21580;DHT22;10951;59.656;9.666;2022-12-07T10:34:28;-7.20;98.70
21580;DHT22;10951;59.656;9.666;2022-12-07T10:44:46;-7.20;98.80
21580;DHT22;10951;59.656;9.666;2022-12-07T10:47:21;-7.20;98.90
21580;DHT22;10951;59.656;9.666;2022-12-07T10:50:25;-7.20;98.70
21580;DHT22;10951;59.656;9.666;2022-12-07T10:56:19;-7.20;99.00
21580;DHT22;10951;59.656;9.666;2022-12-07T11:18:24;-6.80;98.30
21580;DHT22;10951;59.656;9.666;2022-12-07T11:34:27;-6.50;98.00
21580;DHT22;10951;59.656;9.666;2022-12-07T11:37:01;-6.40;97.90
21580;DHT22;10951;59.656;9.666;2022-12-07T11:39:37;-6.30;97.70
21580;DHT22;10951;59.656;9.666;2022-12-07T11:42:26;-6.20;98.00
21580;DHT22;10951;59.656;9.666;2022-12-07T11:45:15;-6.10;98.00
21580;DHT22;10951;59.656;9.666;2022-12-07T11:50:50;-5.80;97.20
21580;DHT22;10951;59.656;9.666;2022-12-07T11:55:57;-5.70;96.20
21580;DHT22;10951;59.656;9.666;2022-12-07T12:06:41;-5.40;95.90
21580;DHT22;10951;59.656;9.666;2022-12-07T12:18:16;-4.90;95.60
21580;DHT22;10951;59.656;9.666;2022-12-07T12:20:55;-4.80;95.30
21580;DHT22;10951;59.656;9.666;2022-12-07T12:26:05;-4.60;94.90
21580;DHT22;10951;59.656;9.666;2022-12-07T12:28:49;-4.60;94.90
21580;DHT22;10951;59.656;9.666;2022-12-07T12:33:52;-4.50;94.90
21580;DHT22;10951;59.656;9.666;2022-12-07T12:36:25;-4.50;94.60
21580;DHT22;10951;59.656;9.666;2022-12-07T12:46:53;-4.50;96.00
21580;DHT22;10951;59.656;9.666;2022-12-07T12:59:31;-4.50;94.90
21580;DHT22;10951;59.656;9.666;2022-12-07T13:04:50;-4.50;95.20
21580;DHT22;10951;59.656;9.666;2022-12-07T13:23:57;-4.40;94.00
21580;DHT22;10951;59.656;9.666;2022-12-07T13:26:42;-4.50;94.20
21580;DHT22;10951;59.656;9.666;2022-12-07T13:29:21;-4.60;94.50
21580;DHT22;10951;59.656;9.666;2022-12-07T13:31:55;-4.60;94.40
21580;DHT22;10951;59.656;9.666;2022-12-07T13:34:50;-4.70;94.70
21580;DHT22;10951;59.656;9.666;2022-12-07T13:37:28;-4.70;94.50
21580;DHT22;10951;59.656;9.666;2022-12-07T13:40:21;-4.80;94.80
21580;DHT22;10951;59.656;9.666;2022-12-07T13:43:11;-4.80;95.10
21580;DHT22;10951;59.656;9.666;2022-12-07T13:45:40;-4.80;95.20
21580;DHT22;10951;59.656;9.666;2022-12-07T13:51:27;-4.80;95.00
21580;DHT22;10951;59.656;9.666;2022-12-07T13:53:59;-4.90;95.10
21580;DHT22;10951;59.656;9.666;2022-12-07T13:56:33;-4.90;95.10
21580;DHT22;10951;59.656;9.666;2022-12-07T13:59:01;-4.70;94.70
21580;DHT22;10951;59.656;9.666;2022-12-07T14:01:32;-4.80;94.70
21580;DHT22;10951;59.656;9.666;2022-12-07T14:04:35;-4.90;94.80
21580;DHT22;10951;59.656;9.666;2022-12-07T14:07:32;-4.90;94.90
21580;DHT22;10951;59.656;9.666;2022-12-07T14:10:05;-4.80;94.50
21580;DHT22;10951;59.656;9.666;2022-12-07T14:12:35;-4.80;94.60
21580;DHT22;10951;59.656;9.666;2022-12-07T14:15:03;-4.90;94.90
21580;DHT22;10951;59.656;9.666;2022-12-07T14:17:31;-4.90;94.70
21580;DHT22;10951;59.656;9.666;2022-12-07T14:20:00;-4.90;94.60
21580;DHT22;10951;59.656;9.666;2022-12-07T14:22:34;-4.80;94.60
21580;DHT22;10951;59.656;9.666;2022-12-07T14:25:18;-4.90;94.60
21580;DHT22;10951;59.656;9.666;2022-12-07T14:30:25;-5.00;94.80
21580;DHT22;10951;59.656;9.666;2022-12-07T14:32:57;-5.00;95.00
21580;DHT22;10951;59.656;9.666;2022-12-07T14:35:25;-5.10;94.90
21580;DHT22;10951;59.656;9.666;2022-12-07T14:37:53;-5.10;95.10
21580;DHT22;10951;59.656;9.666;2022-12-07T14:40:24;-5.10;95.20
21580;DHT22;10951;59.656;9.666;2022-12-07T14:42:56;-5.10;94.90
21580;DHT22;10951;59.656;9.666;2022-12-07T14:45:24;-5.10;95.30
21580;DHT22;10951;59.656;9.666;2022-12-07T14:47:51;-5.20;95.70
21580;DHT22;10951;59.656;9.666;2022-12-07T14:50:41;-5.20;95.70
21580;DHT22;10951;59.656;9.666;2022-12-07T14:53:40;-5.20;95.60
21580;DHT22;10951;59.656;9.666;2022-12-07T14:56:08;-5.20;95.60
21580;DHT22;10951;59.656;9.666;2022-12-07T14:58:46;-5.20;95.70
21580;DHT22;10951;59.656;9.666;2022-12-07T15:01:15;-5.20;96.00
21580;DHT22;10951;59.656;9.666;2022-12-07T15:04:01;-5.10;96.20
21580;DHT22;10951;59.656;9.666;2022-12-07T15:06:31;-5.20;96.40
21580;DHT22;10951;59.656;9.666;2022-12-07T15:09:10;-5.30;96.40
21580;DHT22;10951;59.656;9.666;2022-12-07T15:11:40;-5.40;96.20
21580;DHT22;10951;59.656;9.666;2022-12-07T15:14:19;-5.50;96.10
21580;DHT22;10951;59.656;9.666;2022-12-07T15:16:49;-5.50;96.00
21580;DHT22;10951;59.656;9.666;2022-12-07T15:19:47;-5.50;95.90
21580;DHT22;10951;59.656;9.666;2022-12-07T15:22:17;-5.50;95.90
21580;DHT22;10951;59.656;9.666;2022-12-07T15:24:50;-5.50;95.90
21580;DHT22;10951;59.656;9.666;2022-12-07T15:27:17;-5.60;96.10
21580;DHT22;10951;59.656;9.666;2022-12-07T15:29:44;-5.70;96.40
21580;DHT22;10951;59.656;9.666;2022-12-07T15:32:11;-5.70;96.70
21580;DHT22;10951;59.656;9.666;2022-12-07T15:34:46;-5.80;97.40
21580;DHT22;10951;59.656;9.666;2022-12-07T15:37:32;-5.80;98.40
21580;DHT22;10951;59.656;9.666;2022-12-07T15:40:31;-5.80;99.10
21580;DHT22;10951;59.656;9.666;2022-12-07T15:43:23;-5.80;98.90
21580;DHT22;10951;59.656;9.666;2022-12-07T15:46:18;-5.80;98.10
21580;DHT22;10951;59.656;9.666;2022-12-07T15:48:52;-5.70;97.50
21580;DHT22;10951;59.656;9.666;2022-12-07T15:51:25;-5.70;97.80
21580;DHT22;10951;59.656;9.666;2022-12-07T15:53:58;-5.80;97.70
21580;DHT22;10951;59.656;9.666;2022-12-07T15:56:28;-5.80;97.30
21580;DHT22;10951;59.656;9.666;2022-12-07T15:59:01;-5.90;97.60
21580;DHT22;10951;59.656;9.666;2022-12-07T16:01:28;-5.90;97.90
21580;DHT22;10951;59.656;9.666;2022-12-07T16:03:56;-6.00;98.40
21580;DHT22;10951;59.656;9.666;2022-12-07T16:06:31;-6.00;98.40
21580;DHT22;10951;59.656;9.666;2022-12-07T16:09:05;-6.10;98.20
21580;DHT22;10951;59.656;9.666;2022-12-07T16:11:42;-6.10;98.00
21580;DHT22;10951;59.656;9.666;2022-12-07T16:14:12;-6.10;98.20
21580;DHT22;10951;59.656;9.666;2022-12-07T16:16:42;-6.20;98.00
21580;DHT22;10951;59.656;9.666;2022-12-07T16:19:19;-6.20;98.80
21580;DHT22;10951;59.656;9.666;2022-12-07T16:21:48;-6.20;98.80
21580;DHT22;10951;59.656;9.666;2022-12-07T16:24:16;-6.30;98.70
21580;DHT22;10951;59.656;9.666;2022-12-07T16:26:44;-6.20;98.40
21580;DHT22;10951;59.656;9.666;2022-12-07T16:29:17;-6.30;98.40
21580;DHT22;10951;59.656;9.666;2022-12-07T16:31:44;-6.30;98.70
21580;DHT22;10951;59.656;9.666;2022-12-07T16:34:11;-6.30;98.80
21580;DHT22;10951;59.656;9.666;2022-12-07T16:36:38;-6.40;98.70
21580;DHT22;10951;59.656;9.666;2022-12-07T16:39:49;-6.40;98.80
21580;DHT22;10951;59.656;9.666;2022-12-07T16:42:19;-6.40;98.60
21580;DHT22;10951;59.656;9.666;2022-12-07T16:44:51;-6.40;98.60
21580;DHT22;10951;59.656;9.666;2022-12-07T16:47:22;-6.40;98.50
21580;DHT22;10951;59.656;9.666;2022-12-07T16:49:55;-6.50;98.80
21580;DHT22;10951;59.656;9.666;2022-12-07T16:52:23;-6.60;99.20
21580;DHT22;10951;59.656;9.666;2022-12-07T16:54:56;-6.60;99.40
21580;DHT22;10951;59.656;9.666;2022-12-07T16:57:26;-6.70;99.60
21580;DHT22;10951;59.656;9.666;2022-12-07T17:00:00;-6.60;99.70
21580;DHT22;10951;59.656;9.666;2022-12-07T17:02:43;-6.70;99.20
21580;DHT22;10951;59.656;9.666;2022-12-07T17:05:27;-6.70;99.20
21580;DHT22;10951;59.656;9.666;2022-12-07T17:07:57;-6.80;99.40
21580;DHT22;10951;59.656;9.666;2022-12-07T17:10:26;-6.80;99.50
21580;DHT22;10951;59.656;9.666;2022-12-07T17:13:00;-6.80;99.70
21580;DHT22;10951;59.656;9.666;2022-12-07T17:15:27;-6.90;99.60
21580;DHT22;10951;59.656;9.666;2022-12-07T17:18:08;-6.90;99.70
21580;DHT22;10951;59.656;9.666;2022-12-07T17:20:35;-6.90;99.90
21580;DHT22;10951;59.656;9.666;2022-12-07T17:23:02;-6.90;99.90
21580;DHT22;10951;59.656;9.666;2022-12-07T17:25:30;-6.90;99.90
21580;DHT22;10951;59.656;9.666;2022-12-07T17:27:57;-6.90;99.90
21580;DHT22;10951;59.656;9.666;2022-12-07T17:30:28;-6.90;99.90
21580;DHT22;10951;59.656;9.666;2022-12-07T17:33:12;-7.00;99.90
21580;DHT22;10951;59.656;9.666;2022-12-07T17:35:48;-7.00;99.90
21580;DHT22;10951;59.656;9.666;2022-12-07T17:38:28;-7.00;99.80
21580;DHT22;10951;59.656;9.666;2022-12-07T17:41:13;-7.10;99.90
21580;DHT22;10951;59.656;9.666;2022-12-07T17:44:07;-7.10;99.90
21580;DHT22;10951;59.656;9.666;2022-12-07T17:46:41;-7.10;99.80
21580;DHT22;10951;59.656;9.666;2022-12-07T17:49:17;-7.20;99.80
21580;DHT22;10951;59.656;9.666;2022-12-07T17:51:47;-7.30;99.90
21580;DHT22;10951;59.656;9.666;2022-12-07T17:54:33;-7.30;99.90
21580;DHT22;10951;59.656;9.666;2022-12-07T17:57:00;-7.30;99.90
21580;DHT22;10951;59.656;9.666;2022-12-07T17:59:30;-7.30;99.90
21580;DHT22;10951;59.656;9.666;2022-12-07T18:02:01;-7.40;99.60
21580;DHT22;10951;59.656;9.666;2022-12-07T18:04:28;-7.40;99.80
21580;DHT22;10951;59.656;9.666;2022-12-07T18:07:02;-7.40;99.90
21580;DHT22;10951;59.656;9.666;2022-12-07T18:09:38;-7.50;99.90
21580;DHT22;10951;59.656;9.666;2022-12-07T18:12:10;-7.40;99.60
21580;DHT22;10951;59.656;9.666;2022-12-07T18:14:42;-7.40;99.20
21580;DHT22;10951;59.656;9.666;2022-12-07T18:17:14;-7.40;99.10
21580;DHT22;10951;59.656;9.666;2022-12-07T18:19:43;-7.40;99.00
21580;DHT22;10951;59.656;9.666;2022-12-07T18:22:11;-7.50;99.10
21580;DHT22;10951;59.656;9.666;2022-12-07T18:24:42;-7.40;99.20
21580;DHT22;10951;59.656;9.666;2022-12-07T18:27:14;-7.50;99.10
21580;DHT22;10951;59.656;9.666;2022-12-07T18:29:50;-7.50;99.00